»·PEaware :: N576TB KRNO-KSBP

N576TB :: KRNO-KSBP

FLIGHT INFORMATION

Flight Status: Arrived
Operator: Privately registered:
United States
More flights under this callsign
Pilot: Anonymous 8274 (8274)
Aircraft: BEECH AIRCRAFT DEBONAIR BONANZA
(BE33)
More flights by this aircraft type
Origin: KRNO Reno/Tahoe Intl
United States
Destination: KSBP San Luis Co Regl
United States
More flights between these airports :: More routes between these airports
Route: +
File this flight plan on PilotEdge
Remarks:
Altitude:
(Current/Filed)
10,500ft
Speed:
(Current/Filed)
0kts
Departed: 29-Apr-17 06:10 PM
Arrived: 29-Apr-17 08:37 PM
Distance/Time
Traveled:
259nm/2:26
Distance/Time
To Go:
Arrived

Flight Plot

Page will automatically refresh every two minutes.

Flight plan parsing failed; only flown route is shown


Map Options




Map Legend


Flown Route
Filed Route
Departure Airport
Arrival Airport
Navaid (VOR, NDB)
Fix

Horizontal Profiles

Position Reports

Time Latitude Longitude Heading Altitude Ground
Speed
29-Apr-17 18:11 39.195077 -119.903488 199 10706ft 166kts
29-Apr-17 18:12 39.151218 -119.920941 191 10605ft 170kts
29-Apr-17 18:13 39.105693 -119.934520 192 10563ft 166kts
29-Apr-17 18:14 39.061065 -119.947863 191 10564ft 164kts
29-Apr-17 18:15 39.016409 -119.958329 187 10564ft 163kts
29-Apr-17 18:16 38.971819 -119.966041 187 10562ft 160kts
29-Apr-17 18:17 38.928648 -119.977747 195 10563ft 158kts
29-Apr-17 18:18 38.885959 -119.990558 195 10563ft 158kts
29-Apr-17 18:19 38.843759 -120.005201 212 10599ft 157kts
29-Apr-17 18:20 38.820231 -120.052335 248 10618ft 160kts
29-Apr-17 18:21 38.803888 -120.105612 251 10618ft 161kts
29-Apr-17 18:22 38.793762 -120.161529 259 10618ft 162kts
29-Apr-17 18:23 38.785482 -120.218400 259 10618ft 162kts
29-Apr-17 18:24 38.777252 -120.275038 259 10618ft 162kts
29-Apr-17 18:25 38.769160 -120.331977 262 10618ft 162kts
29-Apr-17 18:26 38.764723 -120.389195 272 10618ft 162kts
29-Apr-17 18:27 38.763471 -120.446598 272 10536ft 157kts
29-Apr-17 18:28 38.763708 -120.501142 279 10537ft 150kts
29-Apr-17 18:29 38.771032 -120.553062 288 10537ft 147kts
29-Apr-17 18:30 38.775889 -120.604844 266 10536ft 153kts
29-Apr-17 18:31 38.765735 -120.658255 254 10537ft 157kts
29-Apr-17 18:32 38.748976 -120.710124 254 10415ft 163kts
29-Apr-17 18:33 38.731454 -120.765471 254 9926ft 170kts
29-Apr-17 18:34 38.713985 -120.821901 254 9432ft 171kts
29-Apr-17 18:35 38.696650 -120.878742 254 8936ft 172kts
29-Apr-17 18:36 38.679948 -120.935734 259 8442ft 170kts
29-Apr-17 18:37 38.667614 -120.994160 262 7944ft 169kts
29-Apr-17 18:38 38.658588 -121.053106 266 7446ft 168kts
29-Apr-17 18:39 38.651267 -121.111169 265 6959ft 168kts
29-Apr-17 18:40 38.644061 -121.169585 265 6505ft 167kts
29-Apr-17 18:41 38.630450 -121.223755 249 6439ft 160kts
29-Apr-17 18:42 38.610724 -121.273492 247 6429ft 154kts
29-Apr-17 18:43 38.590893 -121.321607 247 6430ft 152kts
29-Apr-17 18:44 38.571128 -121.369442 247 6430ft 152kts
29-Apr-17 18:45 38.551461 -121.416979 247 6449ft 151kts
29-Apr-17 18:46 38.528799 -121.461649 205 6448ft 162kts
29-Apr-17 18:47 38.484266 -121.449860 159 6457ft 168kts
29-Apr-17 18:48 38.443419 -121.429773 160 6455ft 168kts
29-Apr-17 18:49 38.404039 -121.407436 151 6454ft 168kts
29-Apr-17 18:50 38.362771 -121.379063 152 6427ft 168kts
29-Apr-17 18:51 38.321737 -121.350882 151 6427ft 168kts
29-Apr-17 18:52 38.280626 -121.322385 151 6428ft 168kts
29-Apr-17 18:53 38.239304 -121.294643 155 6428ft 168kts
29-Apr-17 18:54 38.195575 -121.275683 176 6432ft 167kts
29-Apr-17 18:55 38.149677 -121.269656 176 6455ft 166kts
29-Apr-17 18:56 38.103634 -121.263724 176 6455ft 167kts
29-Apr-17 18:57 38.057283 -121.257754 176 6456ft 167kts
29-Apr-17 18:58 38.011010 -121.251811 176 6456ft 167kts
29-Apr-17 18:59 37.964639 -121.245916 176 6456ft 168kts
29-Apr-17 19:00 37.918405 -121.240034 176 6456ft 168kts
29-Apr-17 19:01 37.871836 -121.234106 176 6456ft 168kts
29-Apr-17 19:02 37.825639 -121.226461 161 6454ft 169kts
29-Apr-17 19:03 37.782121 -121.203627 153 6457ft 169kts
29-Apr-17 19:04 37.743977 -121.169744 138 6457ft 169kts
29-Apr-17 19:05 37.708693 -121.130628 133 6457ft 169kts
29-Apr-17 19:06 37.676223 -121.087748 130 6457ft 169kts
29-Apr-17 19:07 37.644063 -121.044504 133 6458ft 169kts
29-Apr-17 19:08 37.616224 -121.009652 133 6458ft 169kts
29-Apr-17 19:09 37.577259 -120.960907 133 6458ft 169kts
29-Apr-17 19:10 37.549184 -120.926271 136 6458ft 170kts
29-Apr-17 19:11 37.508838 -120.880363 137 6457ft 169kts
29-Apr-17 19:12 37.478905 -120.849016 151 6460ft 169kts
29-Apr-17 19:13 37.439887 -120.816704 142 6454ft 169kts
29-Apr-17 19:14 37.402553 -120.780996 142 6454ft 169kts
29-Apr-17 19:15 37.367983 -120.728022 120 6454ft 168kts
29-Apr-17 19:16 37.350456 -120.684493 111 6454ft 168kts
29-Apr-17 19:17 37.328591 -120.621501 108 6454ft 168kts
29-Apr-17 19:18 37.314330 -120.576164 108 6454ft 167kts
29-Apr-17 19:19 37.297298 -120.522048 108 6454ft 166kts
29-Apr-17 19:20 37.276520 -120.470386 126 6455ft 168kts
29-Apr-17 19:21 37.245076 -120.426930 131 6462ft 168kts
29-Apr-17 19:22 37.212115 -120.385997 134 6469ft 166kts
29-Apr-17 19:23 37.178038 -120.343407 133 6116ft 181kts
29-Apr-17 19:24 37.141826 -120.297946 133 5621ft 186kts
29-Apr-17 19:25 37.106329 -120.253435 133 5462ft 172kts
29-Apr-17 19:26 37.073348 -120.212213 133 5464ft 165kts
29-Apr-17 19:27 37.040010 -120.173386 136 5465ft 163kts
29-Apr-17 19:28 37.006413 -120.135196 136 5465ft 163kts
29-Apr-17 19:29 36.972774 -120.096961 136 5465ft 163kts
29-Apr-17 19:30 36.939276 -120.058889 136 5466ft 163kts
29-Apr-17 19:31 36.905667 -120.020695 136 5466ft 163kts
29-Apr-17 19:32 36.871954 -119.982386 136 5466ft 163kts
29-Apr-17 19:33 36.839486 -119.945388 136 5572ft 157kts
29-Apr-17 19:34 36.807015 -119.908227 134 5573ft 159kts
29-Apr-17 19:35 36.778730 -119.868804 131 5550ft 153kts
29-Apr-17 19:36 36.749382 -119.831904 139 5551ft 149kts
29-Apr-17 19:37 36.718322 -119.797779 139 5551ft 148kts
29-Apr-17 19:38 36.687189 -119.763892 139 5563ft 151kts
29-Apr-17 19:39 36.654537 -119.728945 138 5574ft 158kts
29-Apr-17 19:40 36.621128 -119.693164 138 5573ft 159kts
29-Apr-17 19:41 36.587921 -119.657317 138 5562ft 156kts
29-Apr-17 19:42 36.556087 -119.622370 138 5559ft 150kts
29-Apr-17 19:43 36.524984 -119.588208 138 5560ft 149kts
29-Apr-17 19:44 36.494169 -119.554346 138 5560ft 148kts
29-Apr-17 19:45 36.463202 -119.520337 140 5560ft 148kts
29-Apr-17 19:46 36.429403 -119.493273 150 5560ft 148kts
29-Apr-17 19:47 36.392718 -119.469559 154 5537ft 154kts
29-Apr-17 19:48 36.353113 -119.447053 192 5527ft 157kts
29-Apr-17 19:49 36.333026 -119.486741 273 5531ft 139kts
29-Apr-17 19:50 36.334635 -119.534212 282 5530ft 137kts
29-Apr-17 19:51 36.337078 -119.581541 262 5529ft 142kts
29-Apr-17 19:52 36.330360 -119.629291 266 5519ft 141kts
29-Apr-17 19:53 36.324425 -119.677567 266 5517ft 141kts
29-Apr-17 19:54 36.318471 -119.725837 266 5517ft 141kts
29-Apr-17 19:55 36.312550 -119.773841 266 5517ft 141kts
29-Apr-17 19:56 36.306608 -119.822057 266 5517ft 141kts
29-Apr-17 19:57 36.299571 -119.870135 253 5516ft 145kts
29-Apr-17 19:58 36.283789 -119.915970 253 5517ft 145kts
29-Apr-17 19:59 36.267869 -119.962061 253 5517ft 145kts
29-Apr-17 20:00 36.251999 -120.007926 253 5517ft 145kts
29-Apr-17 20:01 36.236136 -120.053855 253 5517ft 145kts
29-Apr-17 20:02 36.218126 -120.098763 245 5517ft 147kts
29-Apr-17 20:03 36.198947 -120.142824 249 5518ft 146kts
29-Apr-17 20:04 36.180750 -120.188609 249 5481ft 147kts
29-Apr-17 20:05 36.163758 -120.234028 263 5492ft 143kts
29-Apr-17 20:06 36.155625 -120.282192 267 5492ft 142kts
29-Apr-17 20:07 36.150961 -120.330720 267 5491ft 142kts
29-Apr-17 20:08 36.134559 -120.376616 250 5491ft 147kts
29-Apr-17 20:09 36.117143 -120.422244 250 5491ft 147kts
29-Apr-17 20:10 36.099747 -120.467809 251 5491ft 147kts
29-Apr-17 20:11 36.082375 -120.513198 250 5518ft 146kts
29-Apr-17 20:12 36.065259 -120.558920 251 5520ft 147kts
29-Apr-17 20:13 36.051110 -120.606927 254 5509ft 150kts
29-Apr-17 20:14 36.033625 -120.653428 250 5491ft 148kts
29-Apr-17 20:15 36.016076 -120.699376 250 5491ft 147kts
29-Apr-17 20:16 35.998641 -120.744967 250 5485ft 147kts
29-Apr-17 20:17 35.981217 -120.790470 250 5509ft 147kts
29-Apr-17 20:18 35.963704 -120.836244 251 5482ft 147kts
29-Apr-17 20:19 35.932466 -120.865750 187 5479ft 161kts
29-Apr-17 20:20 35.888883 -120.852395 159 5482ft 163kts
29-Apr-17 20:21 35.863063 -120.812181 103 5482ft 159kts
29-Apr-17 20:22 35.849613 -120.760332 119 5505ft 162kts
29-Apr-17 20:23 35.811752 -120.730373 156 5510ft 165kts
29-Apr-17 20:24 35.769589 -120.708905 159 5510ft 165kts
29-Apr-17 20:25 35.725900 -120.692945 167 5510ft 164kts
29-Apr-17 20:26 35.681091 -120.685226 179 5510ft 163kts
29-Apr-17 20:27 35.636429 -120.688851 191 5510ft 161kts
29-Apr-17 20:28 35.591995 -120.695740 191 5510ft 161kts
29-Apr-17 20:29 35.547146 -120.694768 172 5510ft 164kts
29-Apr-17 20:30 35.502899 -120.681460 168 5511ft 164kts
29-Apr-17 20:31 35.458812 -120.667893 168 5511ft 164kts
29-Apr-17 20:32 35.423221 -120.666834 183 5417ft 164kts
29-Apr-17 20:33 35.377858 -120.666847 183 4903ft 159kts
29-Apr-17 20:34 35.335696 -120.668055 183 4394ft 150kts
29-Apr-17 20:35 35.294210 -120.667802 182 3886ft 149kts
29-Apr-17 20:36 35.260230 -120.648356 136 1871ft 121kts
29-Apr-17 20:37 35.244457 -120.620390 120 1192ft 89kts
29-Apr-17 20:38 35.227470 -120.622170 281 577ft 86kts
29-Apr-17 20:39 35.237391 -120.641022 309 214ft 31kts
29-Apr-17 20:40 35.239888 -120.643929 41 214ft 0kts
29-Apr-17 20:41 35.238573 -120.641257 124 214ft 13kts
29-Apr-17 20:42 35.238722 -120.639032 269 214ft 0kts
29-Apr-17 20:52 35.238722 -120.639032 269 214ft 0kts
29-Apr-17 20:53 35.238722 -120.639032 269 214ft 0kts

Navigation Log

Ident Type
Flight plan parsing failed, navigation log unavailable